Portada
METAR-TAF:

METAR-TAF

Aeroports :

Los Mochis, Mèxic

latitud: 25-41N, longitud: 109-05W, altitud: 4 m

Observació

L'informe es va fer fa 6 hores i 10 minuts, a les 02:40 UTC
Vent 8 kt del Sud/Sud-Oest
Temperatura 24°C
Humitat 57%
Pressió 1009 hPa
Visibilitat: 16.1 km
Cel clar

METAR: MMLM 230240Z 20008KT 10SM SKC 24/15 A2979 RMK SLP088

Hora: 02:50 (08:50 UTC)

Pronòstic

L'informe es va fer fa 3 hores i 50 minuts, a les 05:00 UTC
Pronòstic vàlid del 23 a les 06 UTC al 24 a les 06 UTC
Vent 5 kt del Sud/Sud-Oest
Visibilitat: 10 km
Cel clar
A partir de les 23 a les 1800 UTC
Vent 15 kt del Sud/Sud-Oest
Visibilitat: 10 km
Cel clar
A partir de les 24 a les 0200 UTC
Vent 8 kt del Sud-Oest
Visibilitat: 10 km
Cel clar

TAF: MMLM 230500Z 2306/2406 20005KT P6SM SKC FM231800 21015KT P6SM SKC FM240200 22008KT P6SM SKC

Observacions i pronòstics meteorològics de més de 4000 aeroports (METAR i TAF).

Les estacions disponibles són els punts grocs i vermells al mapa.

Posi el ratolí al punt desitjat per veure el nom de l'estació.

Feu clic per veure les observacions i els pronòstics meteorològics.

Per canviar el mapa: feu clic els botons verds amb una creu de color negre per apropar; al botó verd amb un guió per allunyar la imatge; o en les fletxes verdes per a mapes adjacents.


METAR-TAF: